createdAt,value
2022-09-12T00:00:10.709Z,15.02
2022-09-12T00:02:37.373Z,14.23
2022-09-12T00:05:04.273Z,14.82
2022-09-12T00:07:30.645Z,14.98
2022-09-12T00:09:57.190Z,16.10
2022-09-12T00:12:23.604Z,16.00
2022-09-12T00:14:50.004Z,17.27
2022-09-12T00:17:16.407Z,14.27
2022-09-12T00:19:42.872Z,16.33
2022-09-12T00:22:09.343Z,17.77
2022-09-12T00:24:35.717Z,16.90
2022-09-12T00:27:02.090Z,15.65
2022-09-12T00:29:28.509Z,16.80
2022-09-12T00:31:54.971Z,17.50
2022-09-12T00:34:21.393Z,15.68
2022-09-12T00:36:47.840Z,15.13
2022-09-12T00:39:17.802Z,16.05
2022-09-12T00:41:44.676Z,16.35
2022-09-12T00:44:17.069Z,16.52
2022-09-12T00:46:54.762Z,19.27
2022-09-12T00:49:29.428Z,18.30
2022-09-12T00:52:10.809Z,17.48
2022-09-12T00:54:57.204Z,18.00
2022-09-12T00:57:27.949Z,16.10
2022-09-12T00:59:59.366Z,17.48
2022-09-12T01:02:26.498Z,17.60
2022-09-12T01:04:53.204Z,17.23
2022-09-12T01:07:21.112Z,16.27
2022-09-12T01:09:47.873Z,16.60
2022-09-12T01:12:15.467Z,16.63
2022-09-12T01:14:41.977Z,19.25
2022-09-12T01:17:12.246Z,16.20
2022-09-12T01:20:05.312Z,17.13
2022-09-12T01:22:53.285Z,16.63
2022-09-12T01:25:22.608Z,17.08
2022-09-12T01:28:04.227Z,16.45
2022-09-12T01:30:42.588Z,19.60
2022-09-12T01:33:24.206Z,17.67
2022-09-12T01:36:11.296Z,17.02
2022-09-12T01:39:00.093Z,15.15
2022-09-12T01:41:38.679Z,15.75
2022-09-12T01:44:12.888Z,16.85
2022-09-12T01:46:49.198Z,15.32
2022-09-12T01:49:24.558Z,17.85
2022-09-12T01:52:10.645Z,17.48
2022-09-12T01:54:45.927Z,15.10
2022-09-12T01:57:25.594Z,16.55
2022-09-12T01:59:57.334Z,15.25
2022-09-12T02:02:35.450Z,16.30
2022-09-12T02:05:10.774Z,16.35
2022-09-12T02:07:52.036Z,15.82
2022-09-12T02:10:27.125Z,16.80
2022-09-12T02:13:07.122Z,16.73
2022-09-12T02:15:38.368Z,16.23
2022-09-12T02:18:06.512Z,15.77
2022-09-12T02:20:54.617Z,15.38
2022-09-12T02:23:26.376Z,15.25
2022-09-12T02:25:57.717Z,17.02
2022-09-12T02:28:38.305Z,15.77
2022-09-12T02:31:23.529Z,15.43
2022-09-12T02:34:29.044Z,15.13
2022-09-12T02:37:05.776Z,15.75
2022-09-12T02:39:32.773Z,14.82
2022-09-12T02:42:02.012Z,13.98
2022-09-12T02:44:30.384Z,15.05
2022-09-12T02:47:04.164Z,15.43
2022-09-12T02:49:30.787Z,15.40
2022-09-12T02:51:57.396Z,15.07
2022-09-12T02:54:24.948Z,13.95
2022-09-12T02:56:51.688Z,14.65
2022-09-12T02:59:20.571Z,15.73
2022-09-12T03:02:05.159Z,15.48
2022-09-12T03:04:44.461Z,14.13
2022-09-12T03:07:25.624Z,15.70
2022-09-12T03:10:22.695Z,14.77
2022-09-12T03:12:55.857Z,14.88
2022-09-12T03:15:51.802Z,13.70
2022-09-12T03:18:31.630Z,13.88
2022-09-12T03:21:10.186Z,14.13
2022-09-12T03:24:10.570Z,14.05
2022-09-12T03:26:52.661Z,14.30
2022-09-12T03:29:20.213Z,13.80
2022-09-12T03:31:55.233Z,15.02
2022-09-12T03:34:23.164Z,13.35
2022-09-12T03:36:50.330Z,14.82
2022-09-12T03:39:17.132Z,13.13
2022-09-12T03:41:44.058Z,13.45
2022-09-12T03:44:10.445Z,13.57
2022-09-12T03:46:36.915Z,14.25
2022-09-12T03:49:03.451Z,14.35
2022-09-12T03:51:29.956Z,15.48
2022-09-12T03:53:56.377Z,13.93
2022-09-12T03:56:22.836Z,13.32
2022-09-12T03:58:49.372Z,14.50
2022-09-12T04:01:18.350Z,13.18
2022-09-12T04:03:49.909Z,13.50
2022-09-12T04:06:18.916Z,13.00
2022-09-12T04:08:49.021Z,13.40
2022-09-12T04:11:16.425Z,14.50
2022-09-12T04:13:44.791Z,14.75
2022-09-12T04:16:12.819Z,14.77
2022-09-12T04:18:39.967Z,15.00
2022-09-12T04:21:12.189Z,13.90
2022-09-12T04:23:38.664Z,14.00
2022-09-12T04:26:07.591Z,15.60
2022-09-12T04:28:35.991Z,14.35
2022-09-12T04:31:06.009Z,15.98
2022-09-12T04:33:32.474Z,15.05
2022-09-12T04:36:07.534Z,15.98
2022-09-12T04:38:34.955Z,16.10
2022-09-12T04:41:01.485Z,16.00
2022-09-12T04:43:28.023Z,14.60
2022-09-12T04:45:55.476Z,16.48
2022-09-12T04:48:21.909Z,15.85
2022-09-12T04:50:48.295Z,16.88
2022-09-12T04:53:14.674Z,15.82
2022-09-12T04:55:41.117Z,15.82
2022-09-12T04:58:07.513Z,16.15
2022-09-12T05:00:34.825Z,16.77
2022-09-12T05:03:01.312Z,16.45
2022-09-12T05:05:27.698Z,16.52
2022-09-12T05:07:54.128Z,15.60
2022-09-12T05:10:20.553Z,16.85
2022-09-12T05:12:47.258Z,18.33
2022-09-12T05:15:13.714Z,17.90
2022-09-12T05:17:40.105Z,15.63
2022-09-12T05:20:07.004Z,17.75
2022-09-12T05:22:33.407Z,17.40
2022-09-12T05:24:59.825Z,16.73
2022-09-12T05:27:26.221Z,14.80
2022-09-12T05:29:52.617Z,15.80
2022-09-12T05:32:19.047Z,15.63
2022-09-12T05:34:45.576Z,15.35
2022-09-12T05:37:12.982Z,16.70
2022-09-12T05:39:39.482Z,15.85
2022-09-12T05:42:06.082Z,17.98
2022-09-12T05:44:33.225Z,17.35
2022-09-12T05:46:59.637Z,16.52
2022-09-12T05:49:26.139Z,18.75
2022-09-12T05:51:52.694Z,17.08
2022-09-12T05:54:20.454Z,20.30
2022-09-12T05:56:48.280Z,18.20
2022-09-12T05:59:17.695Z,19.25
2022-09-12T06:01:44.676Z,17.13
2022-09-12T06:04:12.055Z,19.10
2022-09-12T06:06:45.027Z,16.30
2022-09-12T06:09:12.594Z,16.65
2022-09-12T06:11:42.617Z,16.40
2022-09-12T06:14:11.445Z,18.05
2022-09-12T06:16:39.158Z,17.08
2022-09-12T06:19:16.013Z,16.15
2022-09-12T06:21:42.578Z,14.95
2022-09-12T06:24:09.240Z,16.67
2022-09-12T06:26:36.380Z,15.63
2022-09-12T06:29:03.324Z,15.05
2022-09-12T06:31:33.489Z,14.40
2022-09-12T06:34:02.308Z,16.57
2022-09-12T06:36:32.081Z,13.00
2022-09-12T06:39:01.070Z,14.20
2022-09-12T06:41:29.021Z,14.70
2022-09-12T06:43:55.581Z,13.35
2022-09-12T06:46:22.126Z,13.05
2022-09-12T06:48:50.552Z,11.75
2022-09-12T06:51:18.857Z,12.77
2022-09-12T06:53:46.654Z,13.30
2022-09-12T06:56:21.627Z,10.55
2022-09-12T06:58:49.946Z,11.32
2022-09-12T07:01:16.582Z,12.32
2022-09-12T07:03:47.095Z,11.95
2022-09-12T07:06:15.164Z,10.85
2022-09-12T07:08:41.919Z,9.10
2022-09-12T07:11:11.488Z,9.15
2022-09-12T07:13:39.248Z,7.07
2022-09-12T07:16:06.240Z,6.90
2022-09-12T07:18:34.737Z,7.75
2022-09-12T07:21:02.587Z,7.45
2022-09-12T07:23:30.276Z,8.25
2022-09-12T07:26:01.146Z,7.57
2022-09-12T07:30:56.168Z,7.70
2022-09-12T07:33:29.431Z,8.30
2022-09-12T07:36:00.391Z,7.15
2022-09-12T07:40:53.486Z,6.93
2022-09-12T07:43:19.889Z,7.07
2022-09-12T07:45:46.539Z,8.00
2022-09-12T07:48:13.885Z,7.50
2022-09-12T07:50:44.985Z,8.10
2022-09-12T07:53:12.690Z,6.88
2022-09-12T07:55:39.341Z,6.78
2022-09-12T07:58:05.729Z,6.13
2022-09-12T08:00:35.897Z,7.07
2022-09-12T08:03:07.192Z,6.20
2022-09-12T08:05:33.618Z,4.82
2022-09-12T08:08:00.041Z,4.68
2022-09-12T08:10:26.422Z,5.55
2022-09-12T08:12:52.912Z,5.25
2022-09-12T08:15:20.249Z,5.72
2022-09-12T08:17:46.648Z,5.13
2022-09-12T08:20:13.145Z,4.35
2022-09-12T08:22:40.666Z,4.60
2022-09-12T08:25:08.628Z,4.28
2022-09-12T08:27:35.075Z,4.38
2022-09-12T08:30:01.762Z,4.68
2022-09-12T08:32:28.151Z,5.10
2022-09-12T08:34:54.616Z,4.60
2022-09-12T08:37:21.236Z,3.95
2022-09-12T08:39:47.779Z,4.55
2022-09-12T08:42:30.160Z,5.35
2022-09-12T08:45:30.836Z,6.13
2022-09-12T08:47:57.648Z,3.80
2022-09-12T08:50:24.049Z,4.90
2022-09-12T08:52:56.704Z,5.10
2022-09-12T08:55:58.557Z,4.15
2022-09-12T08:58:27.938Z,5.07
2022-09-12T09:01:22.142Z,3.58
2022-09-12T09:04:03.896Z,3.88
2022-09-12T09:07:15.735Z,3.83
2022-09-12T09:10:08.276Z,4.82
2022-09-12T09:12:52.793Z,4.45
2022-09-12T09:15:24.702Z,4.22
2022-09-12T09:17:54.989Z,4.93
2022-09-12T09:20:39.943Z,5.70
2022-09-12T09:23:12.837Z,4.82
2022-09-12T09:25:58.018Z,4.97
2022-09-12T09:28:39.489Z,5.60
2022-09-12T09:31:14.953Z,5.32
2022-09-12T09:33:41.436Z,4.22
2022-09-12T09:36:18.302Z,4.50
2022-09-12T09:39:30.040Z,3.97
2022-09-12T09:42:21.411Z,3.97
2022-09-12T09:44:49.099Z,4.10
2022-09-12T09:47:18.184Z,5.40
2022-09-12T09:49:44.659Z,4.93
2022-09-12T09:52:16.129Z,4.38
2022-09-12T09:54:53.218Z,5.18
2022-09-12T09:57:39.362Z,5.15
2022-09-12T10:00:32.863Z,4.78
2022-09-12T10:03:14.403Z,4.03
2022-09-12T10:06:03.866Z,4.70
2022-09-12T10:08:32.484Z,4.72
2022-09-12T10:11:20.795Z,4.75
2022-09-12T10:13:59.897Z,5.22
2022-09-12T10:16:34.859Z,4.57
2022-09-12T10:19:03.093Z,6.03
2022-09-12T10:21:41.317Z,3.95
2022-09-12T10:24:32.821Z,5.57
2022-09-12T10:27:08.515Z,5.65
2022-09-12T10:30:00.239Z,4.70
2022-09-12T10:32:30.980Z,5.15
2022-09-12T10:35:04.153Z,5.15
2022-09-12T10:37:34.768Z,4.82
2022-09-12T10:40:03.913Z,5.63
2022-09-12T10:42:49.511Z,5.63
2022-09-12T10:45:30.866Z,6.00
2022-09-12T10:48:06.861Z,4.68
2022-09-12T10:50:42.152Z,4.80
2022-09-12T10:53:33.608Z,5.35
2022-09-12T10:56:13.485Z,6.80
2022-09-12T10:58:49.405Z,4.85
2022-09-12T11:01:37.267Z,3.70
2022-09-12T11:04:18.757Z,4.55
2022-09-12T11:07:33.271Z,3.97
2022-09-12T11:10:21.710Z,5.28
2022-09-12T11:13:23.392Z,5.60
2022-09-12T11:16:08.317Z,3.70
2022-09-12T11:19:12.173Z,4.47
2022-09-12T11:21:38.506Z,4.43
2022-09-12T11:24:26.629Z,4.40
2022-09-12T11:27:08.054Z,4.78
2022-09-12T11:29:40.072Z,4.20
2022-09-12T11:32:25.273Z,6.28
2022-09-12T11:35:12.850Z,3.97
2022-09-12T11:37:52.253Z,4.32
2022-09-12T11:40:54.304Z,4.40
2022-09-12T11:43:25.036Z,3.13
2022-09-12T11:45:52.439Z,4.40
2022-09-12T11:48:28.051Z,4.00
2022-09-12T11:50:54.954Z,3.78
2022-09-12T11:53:31.844Z,3.40
2022-09-12T11:56:11.990Z,3.63
2022-09-12T11:58:41.498Z,3.83
2022-09-12T12:01:36.265Z,3.13
2022-09-12T12:04:11.560Z,3.90
2022-09-12T12:06:53.958Z,3.05
2022-09-12T12:09:20.644Z,3.55
2022-09-12T12:11:56.014Z,3.60
2022-09-12T12:14:33.111Z,3.17
2022-09-12T12:16:59.768Z,3.50
2022-09-12T12:19:37.604Z,2.20
2022-09-12T12:22:16.652Z,2.10
2022-09-12T12:25:04.941Z,3.40
2022-09-12T12:27:53.225Z,2.75
2022-09-12T12:30:31.682Z,3.08
2022-09-12T12:33:02.739Z,3.40
2022-09-12T12:35:59.691Z,2.83
2022-09-12T12:38:32.429Z,4.60
2022-09-12T12:41:16.988Z,2.50
2022-09-12T12:43:45.855Z,2.97
2022-09-12T12:46:18.173Z,2.40
2022-09-12T12:49:02.060Z,2.28
2022-09-12T12:51:34.580Z,2.85
2022-09-12T12:54:03.745Z,2.08
2022-09-12T12:56:40.513Z,2.20
2022-09-12T12:59:17.815Z,2.28
2022-09-12T13:01:51.517Z,2.35
2022-09-12T13:04:24.988Z,2.17
2022-09-12T13:07:32.211Z,2.38
2022-09-12T13:10:00.600Z,2.30
2022-09-12T13:12:35.615Z,1.98
2022-09-12T13:15:04.732Z,2.45
2022-09-12T13:17:41.470Z,2.08
2022-09-12T13:20:30.140Z,2.40
2022-09-12T13:22:57.641Z,1.67
2022-09-12T13:25:33.006Z,2.13
2022-09-12T13:28:02.260Z,2.15
2022-09-12T13:30:31.962Z,1.80
2022-09-12T13:33:08.465Z,2.38
2022-09-12T13:35:39.869Z,1.88
2022-09-12T13:38:26.228Z,2.75
2022-09-12T13:41:22.205Z,2.65
2022-09-12T13:43:49.353Z,1.77
2022-09-12T13:46:30.680Z,2.53
2022-09-12T13:49:00.623Z,1.73
2022-09-12T13:51:30.579Z,2.53
2022-09-12T13:54:02.782Z,2.10
2022-09-12T13:56:29.214Z,2.80
2022-09-12T13:59:00.911Z,2.38
2022-09-12T14:01:42.542Z,2.70
2022-09-12T14:04:45.146Z,2.20
2022-09-12T14:07:20.154Z,2.05
2022-09-12T14:09:54.118Z,1.70
2022-09-12T14:12:30.998Z,2.30
2022-09-12T14:14:57.481Z,2.08
2022-09-12T14:17:31.767Z,2.13
2022-09-12T14:20:05.342Z,2.33
2022-09-12T14:22:34.127Z,2.28
2022-09-12T14:25:01.913Z,2.17
2022-09-12T14:27:51.990Z,1.67
2022-09-12T14:30:37.770Z,1.75
2022-09-12T14:33:09.994Z,1.75
2022-09-12T14:36:18.209Z,2.20
2022-09-12T14:38:48.406Z,2.80
2022-09-12T14:41:24.037Z,1.98
2022-09-12T14:43:54.193Z,2.08
2022-09-12T14:46:30.703Z,1.63
2022-09-12T14:49:18.458Z,2.40
2022-09-12T14:51:51.480Z,1.65
2022-09-12T14:54:30.320Z,2.30
2022-09-12T14:57:39.826Z,1.95
2022-09-12T15:00:12.093Z,1.55
2022-09-12T15:02:40.232Z,1.48
2022-09-12T15:05:06.568Z,1.80
2022-09-12T15:07:35.205Z,1.83
2022-09-12T15:10:21.958Z,1.48
2022-09-12T15:12:49.148Z,1.63
2022-09-12T15:15:18.578Z,1.67
2022-09-12T15:17:45.177Z,2.30
2022-09-12T15:20:13.258Z,1.60
2022-09-12T15:22:41.288Z,2.00
2022-09-12T15:25:08.043Z,1.73
2022-09-12T15:27:34.452Z,1.75
2022-09-12T15:30:00.919Z,1.40
2022-09-12T15:32:29.698Z,1.95
2022-09-12T15:34:56.445Z,1.90
2022-09-12T15:37:24.157Z,2.20
2022-09-12T15:39:51.653Z,1.92
2022-09-12T15:42:26.707Z,2.47
2022-09-12T15:44:53.854Z,1.50
2022-09-12T15:47:20.369Z,1.88
2022-09-12T15:49:46.885Z,2.67
2022-09-12T15:52:15.730Z,1.75
2022-09-12T15:54:43.170Z,1.73
2022-09-12T15:57:09.961Z,1.75
2022-09-12T15:59:36.606Z,1.95
2022-09-12T16:02:03.235Z,1.90
2022-09-12T16:04:30.498Z,2.42
2022-09-12T16:06:57.011Z,2.00
2022-09-12T16:09:23.982Z,2.63
2022-09-12T16:11:50.585Z,2.83
2022-09-12T16:14:18.651Z,2.05
2022-09-12T16:16:51.070Z,2.53
2022-09-12T16:19:17.518Z,1.30
2022-09-12T16:21:44.036Z,3.53
2022-09-12T16:24:10.436Z,2.13
2022-09-12T16:26:36.837Z,1.80
2022-09-12T16:29:03.660Z,2.30
2022-09-12T16:31:30.947Z,2.10
2022-09-12T16:33:57.366Z,2.22
2022-09-12T16:36:24.540Z,2.25
2022-09-12T16:38:53.221Z,2.15
2022-09-12T16:41:27.430Z,2.03
2022-09-12T16:43:54.228Z,2.42
2022-09-12T16:46:26.453Z,1.88
2022-09-12T16:48:54.653Z,2.05
2022-09-12T16:51:24.742Z,1.63
2022-09-12T16:53:51.249Z,2.00
2022-09-12T16:56:18.566Z,2.30
2022-09-12T16:58:45.416Z,2.38
2022-09-12T17:01:17.914Z,2.33
2022-09-12T17:03:44.791Z,3.42
2022-09-12T17:06:13.681Z,2.63
2022-09-12T17:08:42.869Z,3.13
2022-09-12T17:11:15.570Z,3.03
2022-09-12T17:14:03.721Z,3.30
2022-09-12T17:16:33.046Z,2.88
2022-09-12T17:18:59.479Z,3.50
2022-09-12T17:21:26.072Z,1.45
2022-09-12T17:23:52.500Z,2.22
2022-09-12T17:26:18.982Z,2.22
2022-09-12T17:28:46.381Z,2.33
2022-09-12T17:31:14.614Z,2.22
2022-09-12T17:33:41.976Z,2.72
2022-09-12T17:36:15.292Z,1.77
2022-09-12T17:38:43.433Z,3.30
2022-09-12T17:41:11.372Z,3.60
2022-09-12T17:43:38.086Z,3.33
2022-09-12T17:46:05.186Z,2.28
2022-09-12T17:48:32.409Z,2.25
2022-09-12T17:50:59.295Z,1.80
2022-09-12T17:53:25.823Z,2.05
2022-09-12T17:55:54.366Z,3.15
2022-09-12T17:58:20.935Z,3.53
2022-09-12T18:01:05.792Z,3.65
2022-09-12T18:03:35.112Z,2.33
2022-09-12T18:06:01.524Z,3.45
2022-09-12T18:08:27.942Z,3.17
2022-09-12T18:10:54.387Z,2.65
2022-09-12T18:13:20.781Z,4.20
2022-09-12T18:15:47.183Z,3.13
2022-09-12T18:18:14.028Z,3.25
2022-09-12T18:20:50.029Z,3.03
2022-09-12T18:23:16.448Z,3.55
2022-09-12T18:25:42.839Z,3.25
2022-09-12T18:28:09.351Z,3.03
2022-09-12T18:30:35.809Z,4.10
2022-09-12T18:33:02.276Z,4.97
2022-09-12T18:35:28.667Z,2.72
2022-09-12T18:37:55.667Z,4.15
2022-09-12T18:40:22.154Z,3.60
2022-09-12T18:42:48.673Z,3.90
2022-09-12T18:45:15.220Z,3.38
2022-09-12T18:47:41.925Z,3.72
2022-09-12T18:50:09.068Z,3.00
2022-09-12T18:52:35.470Z,5.68
2022-09-12T18:55:01.872Z,4.20
2022-09-12T18:57:31.490Z,4.93
2022-09-12T18:59:59.561Z,4.10
2022-09-12T19:02:28.455Z,4.20
2022-09-12T19:04:54.866Z,3.33
2022-09-12T19:07:21.902Z,3.20
2022-09-12T19:09:48.329Z,4.90
2022-09-12T19:12:14.736Z,3.08
2022-09-12T19:14:41.217Z,3.90
2022-09-12T19:17:07.998Z,3.47
2022-09-12T19:19:37.639Z,4.45
2022-09-12T19:22:06.848Z,4.28
2022-09-12T19:24:33.807Z,5.05
2022-09-12T19:27:00.190Z,4.63
2022-09-12T19:29:26.660Z,5.15
2022-09-12T19:31:53.132Z,5.18
2022-09-12T19:34:19.521Z,5.57
2022-09-12T19:36:47.328Z,5.40
2022-09-12T19:39:16.185Z,5.53
2022-09-12T19:41:43.193Z,4.68
2022-09-12T19:44:09.639Z,5.72
2022-09-12T19:46:36.221Z,5.68
2022-09-12T19:49:03.319Z,5.40
2022-09-12T19:51:29.744Z,6.90
2022-09-12T19:53:56.167Z,6.72
2022-09-12T19:56:22.632Z,6.10
2022-09-12T19:58:55.829Z,6.68
2022-09-12T20:01:27.688Z,6.63
2022-09-12T20:03:54.266Z,6.95
2022-09-12T20:06:20.993Z,6.35
2022-09-12T20:08:47.611Z,7.85
2022-09-12T20:11:19.444Z,7.72
2022-09-12T20:13:46.103Z,7.78
2022-09-12T20:16:21.634Z,6.68
2022-09-12T20:18:54.464Z,9.05
2022-09-12T20:21:25.377Z,8.25
2022-09-12T20:23:52.243Z,9.73
2022-09-12T20:26:20.165Z,9.60
2022-09-12T20:28:46.675Z,9.18
2022-09-12T20:31:15.391Z,9.75
2022-09-12T20:33:42.641Z,10.48
2022-09-12T20:36:20.413Z,10.40
2022-09-12T20:38:52.689Z,10.75
2022-09-12T20:41:20.602Z,10.95
2022-09-12T20:43:54.467Z,9.80
2022-09-12T20:46:22.870Z,11.68
2022-09-12T20:48:50.761Z,9.95
2022-09-12T20:51:18.042Z,9.10
2022-09-12T20:53:44.441Z,10.77
2022-09-12T20:56:11.045Z,11.27
2022-09-12T20:58:40.493Z,11.18
2022-09-12T21:01:11.422Z,10.30
2022-09-12T21:03:39.239Z,9.30
2022-09-12T21:06:06.873Z,12.30
2022-09-12T21:08:34.017Z,11.73
2022-09-12T21:11:00.829Z,9.93
2022-09-12T21:13:27.345Z,12.35
2022-09-12T21:16:04.417Z,12.35
2022-09-12T21:18:32.025Z,13.25
2022-09-12T21:20:58.857Z,12.52
2022-09-12T21:23:26.850Z,12.35
2022-09-12T21:25:53.432Z,12.80
2022-09-12T21:28:20.683Z,12.57
2022-09-12T21:30:50.785Z,11.82
2022-09-12T21:33:19.061Z,14.32
2022-09-12T21:35:46.042Z,13.52
2022-09-12T21:38:12.774Z,13.57
2022-09-12T21:40:39.188Z,12.75
2022-09-12T21:43:09.212Z,13.27
2022-09-12T21:45:38.463Z,13.90
2022-09-12T21:48:05.030Z,13.23
2022-09-12T21:50:31.434Z,12.70
2022-09-12T21:52:57.876Z,14.32
2022-09-12T21:55:27.045Z,14.02
2022-09-12T21:57:54.716Z,13.93
2022-09-12T22:00:21.654Z,14.77
2022-09-12T22:02:48.694Z,14.70
2022-09-12T22:05:15.650Z,13.07
2022-09-12T22:07:42.208Z,16.60
2022-09-12T22:10:09.015Z,14.20
2022-09-12T22:12:35.426Z,15.07
2022-09-12T22:15:17.424Z,16.83
2022-09-12T22:17:48.196Z,16.25
2022-09-12T22:20:14.781Z,14.55
2022-09-12T22:22:59.993Z,15.43
2022-09-12T22:25:26.528Z,16.67
2022-09-12T22:27:54.372Z,17.13
2022-09-12T22:30:21.735Z,16.20
2022-09-12T22:32:49.907Z,16.15
2022-09-12T22:35:17.722Z,17.02
2022-09-12T22:37:44.556Z,18.25
2022-09-12T22:40:11.857Z,17.05
2022-09-12T22:42:38.657Z,19.38
2022-09-12T22:45:05.921Z,19.00
2022-09-12T22:47:32.335Z,22.23
2022-09-12T22:49:58.811Z,19.85
2022-09-12T22:52:25.209Z,21.45
2022-09-12T22:54:51.705Z,20.92
2022-09-12T22:57:18.189Z,20.70
2022-09-12T22:59:44.702Z,21.10
2022-09-12T23:02:11.097Z,21.30
2022-09-12T23:04:37.664Z,25.88
2022-09-12T23:07:04.156Z,23.98
2022-09-12T23:09:35.124Z,23.38
2022-09-12T23:12:02.047Z,23.77
2022-09-12T23:14:28.478Z,25.75
2022-09-12T23:16:54.912Z,25.10
2022-09-12T23:19:21.310Z,26.35
2022-09-12T23:21:47.708Z,25.02
2022-09-12T23:24:14.542Z,27.77
2022-09-12T23:26:40.932Z,27.92
2022-09-12T23:29:07.353Z,25.88
2022-09-12T23:31:34.150Z,27.85
2022-09-12T23:34:03.347Z,27.98
2022-09-12T23:36:30.185Z,28.02
2022-09-12T23:38:56.610Z,27.67
2022-09-12T23:41:24.020Z,29.52
2022-09-12T23:43:50.488Z,30.33
2022-09-12T23:46:18.168Z,28.42
2022-09-12T23:48:45.195Z,24.98
2022-09-12T23:51:12.311Z,26.98
2022-09-12T23:53:39.356Z,27.73
2022-09-12T23:56:06.517Z,26.85
2022-09-12T23:58:33.620Z,29.60
